Time;durP1;ratioP1;P1;durP2;ratioP2;P2;SDS_P1;SDS_P2;PMS_P1;PMS_P2;Temp;Humidity;BMP_temperature;BMP_pressure;BME280_temperature;BME280_humidity;BME280_pressure;Samples;Min_cycle;Max_cycle;Signal;HPM_P1;HPM_P2
2023/01/04 00:02:00;;;;;;;;;4.67;2.00;;;;;10.86;81.57;102190.19;5077833;27;49842;-49
2023/01/04 00:04:26;;;;;;;;;6.67;1.33;;;;;10.90;81.44;102186.34;5077890;27;45245;-47
2023/01/04 00:06:51;;;;;;;;;4.67;2.67;;;;;10.87;81.53;102191.91;5077802;27;45480;-47
2023/01/04 00:09:16;;;;;;;;;1.33;1.33;;;;;10.90;80.99;102193.47;5076902;27;45435;-49
2023/01/04 00:11:42;;;;;;;;;1.67;1.67;;;;;10.89;81.32;102213.94;5076193;28;46045;-47
2023/01/04 00:14:09;;;;;;;;;5.67;2.33;;;;;10.92;81.61;102216.38;5077806;27;45428;-48
2023/01/04 00:16:35;;;;;;;;;2.00;1.67;;;;;10.92;81.03;102196.91;5077530;27;45414;-48
2023/01/04 00:19:00;;;;;;;;;3.00;1.00;;;;;10.96;81.33;102206.34;5077921;27;45332;-47
2023/01/04 00:21:28;;;;;;;;;6.67;2.00;;;;;10.94;81.14;102203.78;5077500;27;45331;-48
2023/01/04 00:23:55;;;;;;;;;2.00;2.00;;;;;10.99;81.08;102224.75;5077520;27;45426;-49
2023/01/04 00:26:28;;;;;;;;;2.00;2.00;;;;;10.96;80.85;102190.38;5077585;28;45334;-47
2023/01/04 00:28:59;;;;;;;;;2.00;2.00;;;;;10.98;80.90;102201.75;5077771;27;45394;-49
2023/01/04 00:31:25;;;;;;;;;4.33;3.00;;;;;11.01;81.29;102212.19;5077023;27;47571;-47
2023/01/04 00:33:55;;;;;;;;;2.00;2.00;;;;;11.00;81.00;102202.50;5077276;27;45696;-49
2023/01/04 00:36:21;;;;;;;;;2.00;1.00;;;;;10.99;81.17;102200.78;5077515;27;45374;-49
2023/01/04 00:38:46;;;;;;;;;6.00;2.00;;;;;10.99;81.47;102200.78;5077494;27;45466;-48
2023/01/04 00:41:12;;;;;;;;;2.00;2.00;;;;;10.98;80.69;102197.28;5077395;27;46150;-47
2023/01/04 00:43:38;;;;;;;;;1.00;1.00;;;;;10.98;81.12;102194.59;5077325;27;45424;-48
2023/01/04 00:46:06;;;;;;;;;7.00;1.00;;;;;10.99;81.19;102193.63;5076939;27;45415;-48
2023/01/04 00:48:31;;;;;;;;;4.33;2.00;;;;;11.01;81.26;102190.03;5077393;27;45492;-48
2023/01/04 00:50:58;;;;;;;;;3.67;2.33;;;;;11.01;80.89;102190.88;5076274;27;45348;-50
2023/01/04 00:53:24;;;;;;;;;2.33;2.33;;;;;10.99;81.23;102187.47;5077096;27;45348;-48
2023/01/04 00:55:49;;;;;;;;;2.67;2.67;;;;;11.01;81.26;102176.72;5077063;28;45437;-48
2023/01/04 00:58:14;;;;;;;;;2.00;2.00;;;;;10.99;80.74;102187.47;5077417;27;45278;-46
2023/01/04 01:00:40;;;;;;;;;6.00;2.00;;;;;10.99;81.27;102172.34;5076671;27;45338;-49
2023/01/04 01:03:05;;;;;;;;;4.33;2.33;;;;;10.99;81.26;102177.66;5077012;27;45385;-50
2023/01/04 01:05:35;;;;;;;;;4.67;2.33;;;;;10.99;81.62;102182.97;5077026;27;45342;-47
2023/01/04 01:08:23;;;;;;;;;2.33;2.00;;;;;11.01;81.45;102169.59;5077320;27;45231;-46
2023/01/04 01:10:49;;;;;;;;;3.67;2.00;;;;;11.01;81.17;102174.06;5076697;27;45315;-47
2023/01/04 01:13:14;;;;;;;;;5.67;2.00;;;;;10.97;81.60;102166.28;5076794;27;45479;-48
2023/01/04 01:15:40;;;;;;;;;3.33;2.00;;;;;11.05;81.46;102171.06;5076644;27;45572;-49
2023/01/04 01:18:05;;;;;;;;;1.67;1.67;;;;;11.04;81.20;102160.50;5075783;27;45453;-47
2023/01/04 01:20:30;;;;;;;;;5.00;2.33;;;;;11.06;81.35;102150.59;5075610;28;46540;-48
2023/01/04 01:22:55;;;;;;;;;2.33;1.67;;;;;11.06;80.78;102155.91;5054491;27;45539;-46
2023/01/04 01:25:21;;;;;;;;;3.00;2.00;;;;;11.05;81.09;102152.41;4974160;28;45237;-47
2023/01/04 01:27:46;;;;;;;;;4.00;3.00;;;;;11.06;81.56;102162.09;4974121;28;45444;-49
2023/01/04 01:30:12;;;;;;;;;3.33;3.00;;;;;11.05;81.46;102155.06;4974007;28;46033;-47
2023/01/04 01:32:37;;;;;;;;;5.33;2.00;;;;;11.06;81.53;102171.91;4973828;28;45472;-48
2023/01/04 01:35:02;;;;;;;;;7.67;3.00;;;;;11.07;81.52;102163.78;4974033;28;45370;-48
2023/01/04 01:37:28;;;;;;;;;1.00;1.00;;;;;10.99;81.72;102148.38;4974324;28;45410;-49
2023/01/04 01:39:53;;;;;;;;;5.00;4.33;;;;;11.10;81.51;102168.03;4973892;28;45340;-48
2023/01/04 01:42:19;;;;;;;;;2.00;2.00;;;;;11.10;81.24;102173.38;4973815;28;45411;-50
2023/01/04 01:44:45;;;;;;;;;5.00;5.00;;;;;11.08;81.82;102167.28;4973797;28;45326;-48
2023/01/04 01:47:20;;;;;;;;;2.00;2.00;;;;;11.06;81.53;102172.75;4973745;28;45215;-47
2023/01/04 01:49:48;;;;;;;;;3.00;1.33;;;;;11.10;81.98;102168.88;4973344;28;46110;-46
2023/01/04 01:52:20;;;;;;;;;2.00;2.00;;;;;11.11;81.91;102164.41;4973432;28;45411;-46
2023/01/04 01:54:53;;;;;;;;;9.33;4.33;;;;;11.12;81.47;102163.44;4973672;28;45387;-48
2023/01/04 01:57:23;;;;;;;;;7.33;3.00;;;;;11.11;81.54;102157.25;4973710;28;45240;-47
2023/01/04 01:59:51;;;;;;;;;7.33;2.33;;;;;11.11;81.57;102162.59;4973304;28;45467;-47
2023/01/04 02:02:17;;;;;;;;;5.00;2.33;;;;;11.12;81.79;102161.63;4973419;28;45275;-49
2023/01/04 02:04:48;;;;;;;;;4.00;2.00;;;;;11.09;81.46;102151.22;4976599;28;45813;-49
2023/01/04 02:07:17;;;;;;;;;2.67;2.00;;;;;11.10;81.47;102142.25;4976807;28;45527;-48
2023/01/04 02:09:43;;;;;;;;;3.33;2.00;;;;;11.11;81.83;102146.59;4976484;28;45419;-46
2023/01/04 02:12:13;;;;;;;;;4.67;2.00;;;;;11.12;81.46;102144.78;4976489;28;45331;-48
2023/01/04 02:14:41;;;;;;;;;6.33;4.00;;;;;11.13;81.72;102150.03;4976364;28;45539;-50
2023/01/04 02:17:21;;;;;;;;;2.00;2.00;;;;;11.13;81.70;102152.69;4976605;28;45442;-49
2023/01/04 02:20:11;;;;;;;;;6.00;1.00;;;;;11.15;81.05;102149.88;4976302;28;45429;-48
2023/01/04 02:22:58;;;;;;;;;2.00;2.00;;;;;11.15;81.11;102160.53;4976257;28;45334;-47
2023/01/04 02:25:44;;;;;;;;;2.00;1.33;;;;;11.15;81.45;102148.06;4976501;28;45375;-46
2023/01/04 02:28:40;;;;;;;;;2.00;2.00;;;;;11.13;81.62;102149.19;4976699;28;45260;-49
2023/01/04 02:31:24;;;;;;;;;3.00;1.67;;;;;11.13;81.62;102158.00;4976140;28;46307;-46
2023/01/04 02:33:49;;;;;;;;;2.00;2.00;;;;;11.14;81.36;102149.03;4976287;28;45283;-49
2023/01/04 02:36:43;;;;;;;;;2.33;2.33;;;;;11.18;81.26;102155.00;4976278;28;45351;-49
2023/01/04 02:39:27;;;;;;;;;3.00;1.67;;;;;11.18;81.49;102155.84;4976389;28;45305;-47
2023/01/04 02:42:05;;;;;;;;;7.67;2.00;;;;;11.19;81.04;102151.34;4975972;28;46121;-48
2023/01/04 02:44:53;;;;;;;;;1.00;1.00;;;;;11.18;81.17;102149.66;4976080;28;45194;-48
2023/01/04 02:50:29;;;;;;;;;3.00;3.00;;;;;11.19;81.36;102157.53;4976042;28;45299;-49
2023/01/04 02:50:31;;;;;;;;;1.33;1.00;;;;;11.21;81.35;102147.63;4976036;28;45556;-48
2023/01/04 02:53:00;;;;;;;;;2.00;2.00;;;;;11.21;81.23;102147.63;4975696;28;46037;-49
2023/01/04 02:55:35;;;;;;;;;3.00;3.00;;;;;11.22;81.45;102157.31;4976051;28;45465;-47
2023/01/04 02:58:23;;;;;;;;;4.00;1.00;;;;;11.22;81.09;102162.63;4975706;28;45444;-48
2023/01/04 03:06:44;;;;;;;;;1.67;1.67;;;;;11.16;80.81;102133.78;4975667;28;45481;-49
2023/01/04 03:09:15;;;;;;;;;2.67;2.00;;;;;11.24;81.22;102141.19;4976143;28;45376;-47
2023/01/04 03:14:39;;;;;;;;;3.33;2.00;;;;;11.25;81.23;102134.94;4974999;28;45389;-47
2023/01/04 03:17:11;;;;;;;;;2.00;2.00;;;;;11.25;81.29;102150.91;4975700;28;45370;-48
2023/01/04 03:19:53;;;;;;;;;2.33;2.33;;;;;11.24;81.56;102134.06;4975825;28;45464;-49
2023/01/04 03:36:45;;;;;;;;;2.67;1.67;;;;;11.25;81.04;102126.94;4975461;28;45379;-50
2023/01/04 03:48:33;;;;;;;;;3.00;2.00;;;;;11.26;81.52;102098.47;4974914;28;45760;-50
2023/01/04 03:51:13;;;;;;;;;2.00;2.00;;;;;11.27;81.43;102092.19;4974823;28;45216;-48
2023/01/04 03:53:53;;;;;;;;;1.33;1.33;;;;;11.27;81.32;102094.84;4975486;28;45333;-48
2023/01/04 03:56:21;;;;;;;;;4.33;1.00;;;;;11.26;81.77;102071.84;4975450;28;45334;-47
2023/01/04 03:58:48;;;;;;;;;2.00;2.00;;;;;11.25;81.49;102092.31;4975353;28;45383;-47
2023/01/04 04:01:14;;;;;;;;;3.33;2.00;;;;;11.21;81.94;102073.03;4974969;28;45473;-49
2023/01/04 04:09:07;;;;;;;;;1.00;1.00;;;;;11.26;81.41;102067.34;4975006;28;45400;-47
2023/01/04 04:11:32;;;;;;;;;0.00;0.00;;;;;11.24;81.43;102071.94;4974724;28;49898;-46
2023/01/04 04:13:59;;;;;;;;;2.00;2.00;;;;;11.29;81.80;102074.25;4975474;28;45334;-47
2023/01/04 04:16:25;;;;;;;;;5.00;2.00;;;;;11.29;81.92;102069.75;4975156;28;45296;-47
2023/01/04 04:18:50;;;;;;;;;1.33;0.33;;;;;11.30;81.62;102073.31;4974686;28;46034;-49
2023/01/04 04:21:16;;;;;;;;;1.00;1.00;;;;;11.21;82.12;102061.53;4975010;28;45334;-46
2023/01/04 04:23:42;;;;;;;;;6.67;3.33;;;;;11.31;81.60;102075.84;4975090;28;45562;-48
2023/01/04 04:26:08;;;;;;;;;3.00;1.33;;;;;11.31;82.32;102075.00;4974298;28;45392;-49
2023/01/04 04:28:34;;;;;;;;;1.33;1.33;;;;;11.31;81.78;102067.00;4974801;28;45311;-48
2023/01/04 04:30:59;;;;;;;;;3.00;2.00;;;;;11.32;81.98;102068.69;4974702;28;45262;-48
2023/01/04 04:33:24;;;;;;;;;2.00;0.67;;;;;11.30;83.01;102078.63;4975082;28;45349;-49
2023/01/04 04:35:51;;;;;;;;;3.00;1.00;;;;;11.30;82.99;102086.63;4974688;28;45319;-49
2023/01/04 04:38:17;;;;;;;;;2.00;2.00;;;;;11.29;82.87;102072.44;4974750;28;45467;-48
2023/01/04 04:43:26;;;;;;;;;3.33;2.00;;;;;11.31;83.01;102081.16;4974720;28;45367;-49
2023/01/04 04:45:51;;;;;;;;;2.33;2.00;;;;;11.34;82.86;102085.41;4974673;28;45267;-47
2023/01/04 04:48:17;;;;;;;;;4.33;2.33;;;;;11.33;83.19;102086.38;4974172;28;49958;-49
2023/01/04 04:50:42;;;;;;;;;2.33;2.00;;;;;11.34;83.28;102074.75;4974413;28;45430;-49
2023/01/04 04:53:07;;;;;;;;;3.67;3.33;;;;;11.32;83.35;102084.69;4974627;28;45311;-50
2023/01/04 04:55:33;;;;;;;;;2.00;2.00;;;;;11.34;82.96;102083.59;4974715;28;45354;-48
2023/01/04 04:57:58;;;;;;;;;3.00;2.00;;;;;11.34;83.56;102072.09;4974277;28;49508;-48
2023/01/04 05:00:23;;;;;;;;;1.67;1.67;;;;;11.35;82.33;102079.97;4974318;28;47232;-47
2023/01/04 05:02:49;;;;;;;;;2.67;2.00;;;;;11.37;82.82;102080.69;4974473;28;45336;-51
2023/01/04 05:05:14;;;;;;;;;3.00;2.00;;;;;11.37;82.93;102070.03;4974542;28;45368;-48
2023/01/04 05:07:39;;;;;;;;;5.00;2.00;;;;;11.35;83.07;102076.44;4974243;28;46003;-50
2023/01/04 05:10:05;;;;;;;;;4.00;3.00;;;;;11.35;83.16;102077.28;4974361;28;45429;-47
2023/01/04 05:15:15;;;;;;;;;1.00;1.00;;;;;11.36;82.88;102064.81;4974411;28;45339;-48
2023/01/04 05:17:40;;;;;;;;;3.33;2.67;;;;;11.35;83.10;102060.47;4974008;28;45383;-48
2023/01/04 05:20:06;;;;;;;;;4.67;3.33;;;;;11.34;82.80;102053.44;4974221;28;45442;-48
2023/01/04 05:22:32;;;;;;;;;2.00;2.00;;;;;11.35;83.28;102061.31;4974097;28;45587;-47
2023/01/04 05:24:57;;;;;;;;;3.33;2.67;;;;;11.37;83.15;102054.03;4974502;28;45232;-47
2023/01/04 05:27:22;;;;;;;;;7.33;2.67;;;;;11.39;82.79;102056.59;4973979;28;46225;-48
2023/01/04 05:32:31;;;;;;;;;7.67;3.00;;;;;11.38;83.45;102065.56;4974211;28;45348;-50
2023/01/04 05:34:57;;;;;;;;;5.00;3.00;;;;;11.40;83.32;102066.28;4974028;28;45397;-50
2023/01/04 05:37:22;;;;;;;;;2.00;2.00;;;;;11.41;83.52;102066.16;4975292;28;47592;-48
2023/01/04 05:39:47;;;;;;;;;5.33;2.33;;;;;11.42;82.98;102067.88;4977055;28;45214;-47
2023/01/04 05:42:25;;;;;;;;;1.67;1.67;;;;;11.42;83.13;102073.19;4977178;28;45249;-48
2023/01/04 05:44:51;;;;;;;;;2.00;2.00;;;;;11.41;84.09;102065.31;4977208;28;45208;-46
2023/01/04 05:47:17;;;;;;;;;5.33;3.00;;;;;11.44;83.96;102065.06;4976590;28;46078;-48
2023/01/04 05:49:42;;;;;;;;;5.67;5.00;;;;;11.39;83.59;102067.25;4976288;28;45500;-52
2023/01/04 05:52:07;;;;;;;;;7.67;2.00;;;;;11.43;83.90;102060.72;4976853;28;45665;-47
2023/01/04 05:54:33;;;;;;;;;1.00;1.00;;;;;11.40;85.07;102059.13;4977121;28;45383;-47
2023/01/04 05:56:58;;;;;;;;;7.00;1.33;;;;;11.41;84.29;102070.63;4976580;28;46103;-48
2023/01/04 05:59:23;;;;;;;;;3.00;3.00;;;;;11.41;84.91;102060.81;4976870;28;45320;-49
2023/01/04 06:01:49;;;;;;;;;3.00;3.00;;;;;11.39;85.39;102064.59;4976550;28;45434;-50
2023/01/04 06:04:14;;;;;;;;;5.00;1.67;;;;;11.39;84.99;102068.09;4976788;28;45473;-47
2023/01/04 06:06:40;;;;;;;;;2.67;2.67;;;;;11.36;85.11;102076.31;4976527;28;45338;-47
2023/01/04 06:09:05;;;;;;;;;4.00;1.00;;;;;11.37;84.81;102071.84;4976635;28;45385;-51
2023/01/04 06:11:30;;;;;;;;;6.00;2.00;;;;;11.38;85.35;102085.06;4976816;28;45523;-49
2023/01/04 06:13:56;;;;;;;;;2.33;2.00;;;;;11.38;85.75;102085.06;4976672;28;45433;-47
2023/01/04 06:16:21;;;;;;;;;2.33;1.33;;;;;11.39;85.30;102069.91;4976224;28;46596;-47
2023/01/04 06:18:46;;;;;;;;;2.00;2.00;;;;;11.39;85.79;102073.44;4976284;28;45350;-49
2023/01/04 06:21:12;;;;;;;;;2.00;2.00;;;;;11.35;85.92;102069.31;4976485;28;45281;-49
2023/01/04 06:23:37;;;;;;;;;3.00;3.00;;;;;11.40;85.54;102074.28;4975367;28;45439;-47
2023/01/04 06:26:02;;;;;;;;;5.00;1.67;;;;;11.43;85.72;102082.03;4976080;28;53054;-48
2023/01/04 06:28:28;;;;;;;;;3.33;2.33;;;;;11.42;85.89;102089.19;4976339;28;45198;-47
2023/01/04 06:30:54;;;;;;;;;4.67;2.00;;;;;11.45;85.45;102080.09;4976309;28;45366;-51
2023/01/04 06:33:19;;;;;;;;;1.67;1.67;;;;;11.46;85.23;102084.44;4976470;28;45801;-48
2023/01/04 06:35:53;;;;;;;;;2.67;2.00;;;;;11.45;85.42;102082.75;4975932;28;46196;-48
2023/01/04 06:38:18;;;;;;;;;4.67;2.00;;;;;11.46;85.90;102084.44;4976013;28;45286;-47
2023/01/04 06:40:43;;;;;;;;;4.67;1.67;;;;;11.46;85.38;102082.66;4974763;28;45325;-49
2023/01/04 06:43:09;;;;;;;;;4.00;1.33;;;;;11.42;85.56;102072.34;4976650;28;45286;-47
2023/01/04 06:45:34;;;;;;;;;1.00;1.00;;;;;11.46;86.80;102089.75;4975818;28;49605;-45
2023/01/04 06:47:59;;;;;;;;;2.00;2.00;;;;;11.46;85.92;102079.09;4975639;28;45441;-48
2023/01/04 06:50:24;;;;;;;;;3.00;2.00;;;;;11.45;86.44;102096.06;4975355;28;45395;-52
2023/01/04 06:52:50;;;;;;;;;1.00;1.00;;;;;11.44;87.13;102076.56;4976354;28;45406;-49
2023/01/04 06:55:15;;;;;;;;;2.00;2.00;;;;;11.44;87.17;102079.25;4975814;28;49493;-49
2023/01/04 06:57:40;;;;;;;;;1.00;1.00;;;;;11.43;87.37;102069.56;4975879;28;45446;-48
2023/01/04 07:00:07;;;;;;;;;3.33;1.67;;;;;11.46;87.43;102100.44;4976133;28;45248;-48
2023/01/04 07:02:33;;;;;;;;;1.00;1.00;;;;;11.48;86.88;102090.50;4976403;28;45332;-46
2023/01/04 07:04:58;;;;;;;;;3.00;2.00;;;;;11.45;87.12;102078.25;4975681;28;46105;-48
2023/01/04 07:07:23;;;;;;;;;1.33;1.33;;;;;11.47;86.84;102080.81;4976091;28;45414;-52
2023/01/04 07:09:49;;;;;;;;;1.00;1.00;;;;;11.47;87.29;102083.50;4976087;28;45345;-48
2023/01/04 07:12:14;;;;;;;;;1.00;1.00;;;;;11.49;87.42;102078.88;4976305;28;45295;-48
2023/01/04 07:14:40;;;;;;;;;1.67;1.67;;;;;11.51;86.07;102089.44;4975907;28;45893;-48
2023/01/04 07:17:05;;;;;;;;;2.67;1.33;;;;;11.51;86.84;102084.09;4974208;28;45486;-48
2023/01/04 07:19:30;;;;;;;;;1.00;1.00;;;;;11.55;86.89;102093.56;4975964;28;45317;-47
2023/01/04 07:21:57;;;;;;;;;4.67;2.33;;;;;11.57;86.59;102089.78;4976150;28;45496;-49
2023/01/04 07:24:23;;;;;;;;;3.67;2.00;;;;;11.50;86.85;102069.91;4975893;28;47199;-48
2023/01/04 07:26:48;;;;;;;;;2.00;2.00;;;;;11.56;86.25;102061.44;4975783;28;45208;-49
2023/01/04 07:29:14;;;;;;;;;2.00;1.67;;;;;11.62;86.53;102076.09;4976066;28;45370;-50
2023/01/04 07:31:40;;;;;;;;;1.00;1.00;;;;;11.63;86.73;102065.34;4976067;28;45268;-48
2023/01/04 07:34:06;;;;;;;;;6.67;1.33;;;;;11.60;86.28;102054.06;4975659;28;46418;-50
2023/01/04 07:36:31;;;;;;;;;3.00;1.33;;;;;11.64;86.02;102061.69;4975783;28;45275;-48
2023/01/04 07:38:58;;;;;;;;;4.00;1.00;;;;;11.62;86.70;102066.28;4975674;28;45394;-48
2023/01/04 07:41:24;;;;;;;;;1.67;1.67;;;;;11.68;86.21;102076.47;4975893;28;45375;-47
2023/01/04 07:43:49;;;;;;;;;1.00;1.00;;;;;11.69;86.31;102082.66;4975678;28;45296;-46
2023/01/04 07:46:14;;;;;;;;;1.00;1.00;;;;;11.71;86.65;102089.56;4975490;28;45363;-47
2023/01/04 07:48:40;;;;;;;;;1.00;1.00;;;;;11.76;85.77;102091.88;4975503;28;45283;-45
2023/01/04 07:51:05;;;;;;;;;1.67;1.67;;;;;11.77;85.81;102090.03;4975629;28;45504;-49
2023/01/04 07:53:33;;;;;;;;;2.00;2.00;;;;;11.77;86.02;102087.38;4975310;28;46936;-52
2023/01/04 07:55:59;;;;;;;;;1.00;1.00;;;;;11.79;85.88;102090.75;4975448;28;45250;-49
2023/01/04 07:58:25;;;;;;;;;1.67;1.67;;;;;11.80;85.74;102079.13;4975370;28;45203;-48
2023/01/04 08:00:51;;;;;;;;;3.00;1.33;;;;;11.83;85.75;102076.25;4975756;28;45153;-49
2023/01/04 08:03:16;;;;;;;;;2.67;0.67;;;;;11.83;85.48;102081.56;4975356;28;45317;-48
2023/01/04 08:05:42;;;;;;;;;1.67;1.67;;;;;11.83;85.96;102084.25;4975530;28;45315;-47
2023/01/04 08:08:07;;;;;;;;;2.33;1.33;;;;;11.82;86.11;102087.84;4975785;28;45342;-49
2023/01/04 08:10:33;;;;;;;;;2.00;0.00;;;;;11.87;86.06;102083.03;4975577;28;45581;-47
2023/01/04 08:12:59;;;;;;;;;2.00;2.00;;;;;11.86;85.84;102089.34;4975249;28;46144;-45
2023/01/04 08:15:25;;;;;;;;;3.00;3.00;;;;;11.88;86.46;102082.94;4975105;28;45271;-48
2023/01/04 08:17:51;;;;;;;;;4.67;3.00;;;;;11.86;85.84;102074.19;4975169;28;45415;-49
2023/01/04 08:20:16;;;;;;;;;2.00;2.00;;;;;11.89;86.34;102075.78;4975257;28;45328;-50
2023/01/04 08:22:42;;;;;;;;;6.33;2.33;;;;;11.88;86.86;102072.25;4974989;28;47123;-47
2023/01/04 08:25:07;;;;;;;;;2.00;2.00;;;;;11.88;86.42;102071.38;4975095;28;45328;-48
2023/01/04 08:27:33;;;;;;;;;2.00;2.00;;;;;11.94;86.02;102084.25;4976118;28;45336;-46
2023/01/04 08:29:58;;;;;;;;;3.33;2.33;;;;;11.92;86.02;102076.34;4975175;28;45709;-49
2023/01/04 08:32:24;;;;;;;;;5.00;3.00;;;;;11.95;86.45;102073.44;4975015;28;46106;-47
2023/01/04 08:34:49;;;;;;;;;2.00;2.00;;;;;11.95;86.31;102078.78;4974632;28;45878;-49
2023/01/04 08:37:15;;;;;;;;;6.33;2.00;;;;;11.94;86.62;102071.75;4975247;28;45287;-48
2023/01/04 08:39:40;;;;;;;;;3.00;1.67;;;;;11.98;86.08;102077.69;4975078;28;45253;-52
2023/01/04 08:42:05;;;;;;;;;3.67;2.00;;;;;11.98;86.71;102080.38;4974626;28;45615;-48
2023/01/04 08:44:33;;;;;;;;;2.00;2.00;;;;;11.99;85.89;102079.38;4974963;28;45236;-49
2023/01/04 08:46:58;;;;;;;;;4.33;1.67;;;;;11.99;86.41;102082.91;4974831;28;45546;-48
2023/01/04 08:49:24;;;;;;;;;2.00;2.00;;;;;12.02;85.85;102097.81;4974861;28;45320;-50
2023/01/04 08:51:49;;;;;;;;;5.00;2.00;;;;;12.03;86.89;102098.66;4974432;28;45352;-51
2023/01/04 08:54:14;;;;;;;;;1.00;1.00;;;;;12.04;86.05;102095.88;4974757;28;45322;-48
2023/01/04 08:56:41;;;;;;;;;4.00;1.67;;;;;12.05;86.37;102081.56;4974746;28;45298;-48
2023/01/04 08:59:09;;;;;;;;;6.00;2.00;;;;;12.06;86.10;102093.09;4974782;28;45403;-52
2023/01/04 09:01:35;;;;;;;;;7.00;4.00;;;;;12.06;86.84;102087.75;4974436;28;45393;-49
2023/01/04 09:04:00;;;;;;;;;2.33;2.00;;;;;12.08;86.46;102091.97;4974547;28;45223;-50
2023/01/04 09:06:26;;;;;;;;;2.00;2.00;;;;;12.10;86.17;102094.53;4974558;28;46088;-52
2023/01/04 09:08:51;;;;;;;;;1.33;1.33;;;;;12.10;87.03;102099.88;4974855;28;45458;-48
2023/01/04 09:11:20;;;;;;;;;3.00;1.33;;;;;12.12;85.69;102097.91;4974814;28;46812;-49
2023/01/04 09:13:47;;;;;;;;;0.67;0.67;;;;;12.12;86.08;102092.59;4980756;28;45441;-48
2023/01/04 09:16:15;;;;;;;;;3.00;2.00;;;;;12.12;86.78;102087.25;4980941;28;45361;-49
2023/01/04 09:18:41;;;;;;;;;2.00;2.00;;;;;12.12;86.76;102089.91;4981021;28;45473;-48
2023/01/04 09:21:08;;;;;;;;;7.00;1.67;;;;;12.14;87.37;102088.00;4980537;28;46115;-48
2023/01/04 09:23:35;;;;;;;;;2.33;2.00;;;;;12.15;87.65;102082.50;4980568;28;45417;-48
2023/01/04 09:26:21;;;;;;;;;1.00;1.00;;;;;12.16;87.00;102083.34;4980643;28;45418;-47
2023/01/04 09:28:47;;;;;;;;;2.33;1.67;;;;;12.11;86.82;102078.41;4980755;28;45307;-47
2023/01/04 09:31:16;;;;;;;;;1.00;1.00;;;;;12.15;86.61;102074.50;4980635;28;45327;-47
2023/01/04 09:33:42;;;;;;;;;4.00;2.33;;;;;12.14;87.09;102086.16;4979213;28;45456;-48
2023/01/04 09:36:12;;;;;;;;;3.67;3.00;;;;;12.13;87.60;102091.59;4980394;28;45477;-49
2023/01/04 09:38:37;;;;;;;;;1.33;1.00;;;;;12.13;86.81;102076.44;4979514;28;45585;-50
2023/01/04 09:41:17;;;;;;;;;3.00;2.00;;;;;12.06;87.23;102056.59;4980134;28;46387;-48
2023/01/04 09:43:51;;;;;;;;;3.00;1.67;;;;;12.17;86.98;102066.38;4980587;28;45432;-49
2023/01/04 09:46:28;;;;;;;;;5.00;2.00;;;;;12.20;86.46;102064.31;4980677;28;45361;-49
2023/01/04 09:49:05;;;;;;;;;2.67;1.67;;;;;12.13;86.24;102041.75;4996406;28;45555;-47
2023/01/04 09:51:35;;;;;;;;;2.33;2.00;;;;;12.22;86.61;102075.72;5083000;27;46037;-47
2023/01/04 09:54:11;;;;;;;;;4.33;2.33;;;;;12.24;86.28;102075.59;5083076;27;45310;-49
2023/01/04 09:56:36;;;;;;;;;3.00;3.00;;;;;12.25;86.34;102066.59;5083278;27;45365;-47
2023/01/04 09:59:08;;;;;;;;;2.00;2.00;;;;;12.29;86.44;102083.22;5083177;27;45247;-49
2023/01/04 10:01:42;;;;;;;;;2.33;2.33;;;;;12.28;86.90;102092.19;5082957;27;47498;-47
2023/01/04 10:04:21;;;;;;;;;1.67;1.67;;;;;12.27;86.17;102101.19;5082821;27;45317;-47
2023/01/04 10:06:47;;;;;;;;;2.00;2.00;;;;;12.30;86.28;102100.91;5082916;27;45252;-49
2023/01/04 10:09:15;;;;;;;;;2.33;1.67;;;;;12.30;85.86;102092.91;5083157;27;45469;-48
2023/01/04 10:11:59;;;;;;;;;2.00;2.00;;;;;12.31;85.81;102097.28;5082704;27;45994;-48
2023/01/04 10:14:39;;;;;;;;;3.67;3.00;;;;;12.32;85.85;102085.63;5081290;28;45505;-48
2023/01/04 10:17:14;;;;;;;;;2.00;0.00;;;;;12.32;85.72;102081.16;5082837;27;45247;-48
2023/01/04 10:20:24;;;;;;;;;3.00;3.00;;;;;12.37;86.02;102078.94;5083108;27;45608;-46
2023/01/04 10:23:17;;;;;;;;;3.00;1.00;;;;;12.40;85.75;102089.38;5049620;27;45469;-50
2023/01/04 10:25:49;;;;;;;;;1.00;1.00;;;;;12.42;85.39;102079.41;5079140;27;45576;-48
2023/01/04 10:28:50;;;;;;;;;3.00;1.00;;;;;12.44;85.64;102079.31;5079397;28;45263;-49
2023/01/04 10:31:28;;;;;;;;;1.00;1.00;;;;;12.47;84.99;102076.34;5079428;27;45378;-48
2023/01/04 10:34:11;;;;;;;;;1.00;1.00;;;;;12.49;84.63;102080.59;5079184;27;46195;-50
2023/01/04 10:36:36;;;;;;;;;1.33;1.33;;;;;12.50;84.94;102076.09;5079126;27;45247;-48
2023/01/04 10:39:13;;;;;;;;;2.00;2.00;;;;;12.49;84.76;102072.59;5079277;27;45326;-49
2023/01/04 10:41:49;;;;;;;;;3.00;1.00;;;;;12.53;85.08;102069.69;5079454;27;45199;-47
2023/01/04 10:44:17;;;;;;;;;1.00;1.00;;;;;12.57;85.36;102068.47;5078944;27;45338;-52
2023/01/04 10:46:45;;;;;;;;;1.33;1.33;;;;;12.56;85.20;102082.78;5079193;27;45276;-52
2023/01/04 10:49:22;;;;;;;;;3.00;2.00;;;;;12.51;85.10;102066.28;5078926;27;45453;-50
2023/01/04 10:51:58;;;;;;;;;3.67;2.00;;;;;12.57;85.48;102071.97;5079294;27;45337;-49
2023/01/04 10:54:37;;;;;;;;;3.67;2.00;;;;;12.56;85.11;102069.44;5078945;27;46119;-49
2023/01/04 10:57:07;;;;;;;;;2.67;1.00;;;;;12.59;85.46;102064.66;5079090;27;45350;-48
2023/01/04 10:59:44;;;;;;;;;2.00;2.00;;;;;12.57;85.60;102063.97;5079110;27;45425;-47
2023/01/04 11:02:30;;;;;;;;;3.00;1.00;;;;;12.57;85.27;102055.94;5079128;27;45393;-48
2023/01/04 11:05:01;;;;;;;;;4.00;3.67;;;;;12.56;85.63;102054.25;5078572;27;46951;-47
2023/01/04 11:07:38;;;;;;;;;3.00;3.00;;;;;12.61;85.19;102061.88;5078633;28;45342;-48
2023/01/04 11:10:28;;;;;;;;;1.00;1.00;;;;;12.62;85.33;102051.06;5078996;28;45366;-49
2023/01/04 11:12:53;;;;;;;;;2.00;2.00;;;;;12.62;85.49;102047.56;5079082;27;45413;-48
2023/01/04 11:15:19;;;;;;;;;3.33;2.00;;;;;12.65;85.91;102055.31;5078302;27;45491;-47
2023/01/04 11:17:45;;;;;;;;;3.33;2.67;;;;;12.66;85.72;102057.00;5078554;27;45330;-49
2023/01/04 11:20:11;;;;;;;;;3.33;2.67;;;;;12.59;85.21;102032.63;5078803;27;45354;-49
2023/01/04 11:22:42;;;;;;;;;3.00;2.00;;;;;12.68;85.45;102053.25;5078668;28;45437;-49
2023/01/04 11:25:14;;;;;;;;;2.33;2.33;;;;;12.66;85.58;102055.19;5078667;27;46182;-49
2023/01/04 11:28:01;;;;;;;;;1.00;1.00;;;;;12.66;85.89;102055.19;5078465;27;45429;-49
2023/01/04 11:30:48;;;;;;;;;2.67;2.00;;;;;12.67;85.47;102043.50;5078191;27;45333;-47
2023/01/04 11:33:20;;;;;;;;;2.00;1.00;;;;;12.68;85.65;102037.22;5078629;27;45385;-48
2023/01/04 11:35:48;;;;;;;;;2.00;2.00;;;;;12.70;85.98;102034.41;5077797;27;45418;-45
2023/01/04 11:38:13;;;;;;;;;2.67;1.67;;;;;12.71;86.18;102031.59;5078283;27;45268;-50
2023/01/04 11:40:40;;;;;;;;;2.33;1.67;;;;;12.70;86.40;102035.25;5078347;27;45426;-45
2023/01/04 11:43:19;;;;;;;;;1.67;1.67;;;;;12.72;86.62;102027.09;5078458;27;45239;-49
2023/01/04 11:45:59;;;;;;;;;2.00;0.67;;;;;12.71;86.80;102018.25;5078243;27;46036;-47
2023/01/04 11:48:38;;;;;;;;;3.00;1.00;;;;;12.73;86.50;102040.34;5078152;27;45419;-47
2023/01/04 11:51:04;;;;;;;;;2.00;2.00;;;;;12.72;86.01;102029.78;5077962;27;45361;-50
2023/01/04 11:53:36;;;;;;;;;2.00;2.00;;;;;12.70;86.97;102021.91;5078131;27;45433;-51
2023/01/04 11:56:12;;;;;;;;;3.33;1.00;;;;;12.70;87.47;102034.41;5077814;27;45475;-47
2023/01/04 11:58:38;;;;;;;;;2.00;1.67;;;;;12.68;87.25;102026.53;5077949;27;45491;-48
2023/01/04 12:01:04;;;;;;;;;3.33;1.00;;;;;12.65;87.98;102021.47;5077965;27;45424;-48
2023/01/04 12:03:34;;;;;;;;;2.00;1.00;;;;;12.33;87.95;101972.59;5078016;27;45221;-48
2023/01/04 12:05:59;;;;;;;;;1.00;1.00;;;;;12.67;87.84;102015.97;5077587;27;47169;-47
2023/01/04 12:08:27;;;;;;;;;2.00;2.00;;;;;12.67;88.23;102008.81;5077576;27;45488;-48
2023/01/04 12:10:52;;;;;;;;;3.00;1.33;;;;;12.69;87.80;102011.38;5077850;27;45285;-48
2023/01/04 12:13:18;;;;;;;;;2.33;2.33;;;;;12.72;87.90;102013.75;5077875;27;45318;-47
2023/01/04 12:16:02;;;;;;;;;4.33;1.33;;;;;12.71;87.98;102001.38;5077482;27;46128;-47
2023/01/04 12:18:40;;;;;;;;;1.00;1.00;;;;;12.74;88.15;102001.97;5077881;27;45450;-46
2023/01/04 12:21:15;;;;;;;;;1.00;1.00;;;;;12.73;87.63;102010.97;5077858;27;45374;-47